sensor_id;sensor_type;location;lat;lon;timestamp;P1;durP1;ratioP1;P2;durP2;ratioP2
62844;SDS011;48929;47.910;20.390;2023-01-05T00:02:11;36.42;;;18.65;;
62844;SDS011;48929;47.910;20.390;2023-01-05T00:04:47;31.58;;;18.38;;
62844;SDS011;48929;47.910;20.390;2023-01-05T00:07:18;28.60;;;14.73;;
62844;SDS011;48929;47.910;20.390;2023-01-05T00:09:47;37.53;;;18.95;;
62844;SDS011;48929;47.910;20.390;2023-01-05T00:12:16;35.67;;;18.25;;
62844;SDS011;48929;47.910;20.390;2023-01-05T00:15:03;34.33;;;17.95;;
62844;SDS011;48929;47.910;20.390;2023-01-05T00:17:49;33.40;;;17.13;;
62844;SDS011;48929;47.910;20.390;2023-01-05T00:20:35;36.53;;;19.98;;
62844;SDS011;48929;47.910;20.390;2023-01-05T00:23:23;36.05;;;18.98;;
62844;SDS011;48929;47.910;20.390;2023-01-05T00:25:52;40.10;;;19.42;;
62844;SDS011;48929;47.910;20.390;2023-01-05T00:28:21;37.45;;;18.88;;
62844;SDS011;48929;47.910;20.390;2023-01-05T00:30:53;32.00;;;17.27;;
62844;SDS011;48929;47.910;20.390;2023-01-05T00:33:23;35.22;;;17.60;;
62844;SDS011;48929;47.910;20.390;2023-01-05T00:35:51;33.13;;;17.77;;
62844;SDS011;48929;47.910;20.390;2023-01-05T00:38:19;31.63;;;17.45;;
62844;SDS011;48929;47.910;20.390;2023-01-05T00:40:50;32.03;;;17.05;;
62844;SDS011;48929;47.910;20.390;2023-01-05T00:43:21;31.33;;;16.33;;
62844;SDS011;48929;47.910;20.390;2023-01-05T00:45:50;33.50;;;16.55;;
62844;SDS011;48929;47.910;20.390;2023-01-05T00:48:19;32.78;;;16.27;;
62844;SDS011;48929;47.910;20.390;2023-01-05T00:50:48;33.28;;;16.92;;
62844;SDS011;48929;47.910;20.390;2023-01-05T00:53:21;32.40;;;17.75;;
62844;SDS011;48929;47.910;20.390;2023-01-05T00:55:57;32.60;;;17.10;;
62844;SDS011;48929;47.910;20.390;2023-01-05T00:58:26;29.48;;;15.75;;
62844;SDS011;48929;47.910;20.390;2023-01-05T01:00:55;30.00;;;16.48;;
62844;SDS011;48929;47.910;20.390;2023-01-05T01:03:24;31.00;;;17.08;;
62844;SDS011;48929;47.910;20.390;2023-01-05T01:05:56;32.67;;;17.65;;
62844;SDS011;48929;47.910;20.390;2023-01-05T01:08:26;35.08;;;18.00;;
62844;SDS011;48929;47.910;20.390;2023-01-05T01:10:58;35.45;;;17.38;;
62844;SDS011;48929;47.910;20.390;2023-01-05T01:13:32;30.50;;;16.42;;
62844;SDS011;48929;47.910;20.390;2023-01-05T01:16:04;32.83;;;16.33;;
62844;SDS011;48929;47.910;20.390;2023-01-05T01:18:33;32.78;;;16.48;;
62844;SDS011;48929;47.910;20.390;2023-01-05T01:21:05;32.15;;;16.95;;
62844;SDS011;48929;47.910;20.390;2023-01-05T01:23:37;29.50;;;15.80;;
62844;SDS011;48929;47.910;20.390;2023-01-05T01:26:07;30.60;;;16.23;;
62844;SDS011;48929;47.910;20.390;2023-01-05T01:28:37;32.65;;;16.70;;
62844;SDS011;48929;47.910;20.390;2023-01-05T01:31:05;29.33;;;16.23;;
62844;SDS011;48929;47.910;20.390;2023-01-05T01:33:37;32.28;;;17.38;;
62844;SDS011;48929;47.910;20.390;2023-01-05T01:36:09;29.15;;;16.30;;
62844;SDS011;48929;47.910;20.390;2023-01-05T01:38:38;31.30;;;17.55;;
62844;SDS011;48929;47.910;20.390;2023-01-05T01:41:10;33.38;;;17.08;;
62844;SDS011;48929;47.910;20.390;2023-01-05T01:43:40;32.17;;;16.25;;
62844;SDS011;48929;47.910;20.390;2023-01-05T01:46:09;35.60;;;18.77;;
62844;SDS011;48929;47.910;20.390;2023-01-05T01:48:38;33.28;;;16.92;;
62844;SDS011;48929;47.910;20.390;2023-01-05T01:51:16;32.67;;;17.05;;
62844;SDS011;48929;47.910;20.390;2023-01-05T01:53:46;29.95;;;16.50;;
62844;SDS011;48929;47.910;20.390;2023-01-05T01:56:19;32.72;;;16.35;;
62844;SDS011;48929;47.910;20.390;2023-01-05T01:58:49;34.42;;;17.35;;
62844;SDS011;48929;47.910;20.390;2023-01-05T02:01:21;31.98;;;15.95;;
62844;SDS011;48929;47.910;20.390;2023-01-05T02:03:50;35.75;;;16.67;;
62844;SDS011;48929;47.910;20.390;2023-01-05T02:06:18;34.33;;;16.50;;
62844;SDS011;48929;47.910;20.390;2023-01-05T02:08:47;30.77;;;15.73;;
62844;SDS011;48929;47.910;20.390;2023-01-05T02:11:23;31.25;;;16.02;;
62844;SDS011;48929;47.910;20.390;2023-01-05T02:14:00;35.47;;;18.58;;
62844;SDS011;48929;47.910;20.390;2023-01-05T02:16:34;35.05;;;17.05;;
62844;SDS011;48929;47.910;20.390;2023-01-05T02:19:12;36.17;;;18.70;;
62844;SDS011;48929;47.910;20.390;2023-01-05T02:21:52;33.20;;;16.60;;
62844;SDS011;48929;47.910;20.390;2023-01-05T02:32:44;35.28;;;16.02;;
62844;SDS011;48929;47.910;20.390;2023-01-05T02:35:16;34.17;;;18.50;;
62844;SDS011;48929;47.910;20.390;2023-01-05T02:37:53;34.65;;;17.75;;
62844;SDS011;48929;47.910;20.390;2023-01-05T02:40:25;34.75;;;17.27;;
62844;SDS011;48929;47.910;20.390;2023-01-05T02:42:55;33.95;;;18.17;;
62844;SDS011;48929;47.910;20.390;2023-01-05T02:45:24;35.75;;;18.58;;
62844;SDS011;48929;47.910;20.390;2023-01-05T02:47:56;32.10;;;17.40;;
62844;SDS011;48929;47.910;20.390;2023-01-05T02:50:25;32.67;;;16.38;;
62844;SDS011;48929;47.910;20.390;2023-01-05T02:53:02;35.00;;;18.92;;
62844;SDS011;48929;47.910;20.390;2023-01-05T02:55:37;30.38;;;16.73;;
62844;SDS011;48929;47.910;20.390;2023-01-05T02:58:09;36.33;;;18.38;;
62844;SDS011;48929;47.910;20.390;2023-01-05T03:00:39;34.35;;;17.48;;
62844;SDS011;48929;47.910;20.390;2023-01-05T03:03:11;36.08;;;19.52;;
62844;SDS011;48929;47.910;20.390;2023-01-05T03:05:41;36.25;;;18.20;;
62844;SDS011;48929;47.910;20.390;2023-01-05T03:08:11;28.98;;;16.42;;
62844;SDS011;48929;47.910;20.390;2023-01-05T03:10:58;30.92;;;15.75;;
62844;SDS011;48929;47.910;20.390;2023-01-05T03:13:45;33.78;;;16.00;;
62844;SDS011;48929;47.910;20.390;2023-01-05T03:16:18;31.40;;;16.13;;
62844;SDS011;48929;47.910;20.390;2023-01-05T03:18:52;31.00;;;16.92;;
62844;SDS011;48929;47.910;20.390;2023-01-05T03:21:39;29.63;;;16.35;;
62844;SDS011;48929;47.910;20.390;2023-01-05T03:27:13;31.20;;;16.33;;
62844;SDS011;48929;47.910;20.390;2023-01-05T03:30:00;27.30;;;16.17;;
62844;SDS011;48929;47.910;20.390;2023-01-05T03:32:49;28.67;;;15.30;;
62844;SDS011;48929;47.910;20.390;2023-01-05T03:35:38;31.77;;;16.17;;
62844;SDS011;48929;47.910;20.390;2023-01-05T03:38:10;31.38;;;16.73;;
62844;SDS011;48929;47.910;20.390;2023-01-05T03:40:44;30.13;;;16.27;;
62844;SDS011;48929;47.910;20.390;2023-01-05T03:43:13;30.27;;;16.25;;
62844;SDS011;48929;47.910;20.390;2023-01-05T03:45:50;35.47;;;17.13;;
62844;SDS011;48929;47.910;20.390;2023-01-05T03:48:23;31.02;;;15.73;;
62844;SDS011;48929;47.910;20.390;2023-01-05T03:50:57;31.70;;;16.95;;
62844;SDS011;48929;47.910;20.390;2023-01-05T03:53:26;32.42;;;16.52;;
62844;SDS011;48929;47.910;20.390;2023-01-05T03:55:55;32.50;;;16.65;;
62844;SDS011;48929;47.910;20.390;2023-01-05T03:58:24;35.25;;;18.42;;
62844;SDS011;48929;47.910;20.390;2023-01-05T04:00:53;36.90;;;18.08;;
62844;SDS011;48929;47.910;20.390;2023-01-05T04:03:22;36.33;;;18.80;;
62844;SDS011;48929;47.910;20.390;2023-01-05T04:05:59;36.70;;;17.80;;
62844;SDS011;48929;47.910;20.390;2023-01-05T04:08:30;35.38;;;17.38;;
62844;SDS011;48929;47.910;20.390;2023-01-05T04:11:08;34.30;;;17.98;;
62844;SDS011;48929;47.910;20.390;2023-01-05T04:13:41;34.45;;;17.38;;
62844;SDS011;48929;47.910;20.390;2023-01-05T04:16:09;33.80;;;17.48;;
62844;SDS011;48929;47.910;20.390;2023-01-05T04:18:41;33.20;;;16.92;;
62844;SDS011;48929;47.910;20.390;2023-01-05T04:21:12;37.55;;;18.13;;
62844;SDS011;48929;47.910;20.390;2023-01-05T04:23:41;35.42;;;18.17;;
62844;SDS011;48929;47.910;20.390;2023-01-05T04:26:09;36.65;;;18.38;;
62844;SDS011;48929;47.910;20.390;2023-01-05T04:28:38;34.22;;;18.40;;
62844;SDS011;48929;47.910;20.390;2023-01-05T04:31:07;34.80;;;18.10;;
62844;SDS011;48929;47.910;20.390;2023-01-05T04:33:37;37.08;;;18.00;;
62844;SDS011;48929;47.910;20.390;2023-01-05T04:36:07;35.67;;;17.73;;
62844;SDS011;48929;47.910;20.390;2023-01-05T04:38:37;36.10;;;18.45;;
62844;SDS011;48929;47.910;20.390;2023-01-05T04:41:06;35.20;;;18.30;;
62844;SDS011;48929;47.910;20.390;2023-01-05T04:43:35;32.45;;;15.68;;
62844;SDS011;48929;47.910;20.390;2023-01-05T04:46:05;32.88;;;16.27;;
62844;SDS011;48929;47.910;20.390;2023-01-05T04:48:35;31.45;;;15.00;;
62844;SDS011;48929;47.910;20.390;2023-01-05T04:51:04;35.65;;;17.08;;
62844;SDS011;48929;47.910;20.390;2023-01-05T04:53:33;32.97;;;15.70;;
62844;SDS011;48929;47.910;20.390;2023-01-05T04:56:10;32.25;;;14.93;;
62844;SDS011;48929;47.910;20.390;2023-01-05T04:58:42;32.10;;;14.85;;
62844;SDS011;48929;47.910;20.390;2023-01-05T05:01:11;35.90;;;16.20;;
62844;SDS011;48929;47.910;20.390;2023-01-05T05:03:40;34.10;;;16.58;;
62844;SDS011;48929;47.910;20.390;2023-01-05T05:06:09;40.30;;;19.55;;
62844;SDS011;48929;47.910;20.390;2023-01-05T05:08:39;33.78;;;16.60;;
62844;SDS011;48929;47.910;20.390;2023-01-05T05:11:09;38.13;;;17.17;;
62844;SDS011;48929;47.910;20.390;2023-01-05T05:13:38;33.83;;;16.17;;
62844;SDS011;48929;47.910;20.390;2023-01-05T05:16:07;32.78;;;16.23;;
62844;SDS011;48929;47.910;20.390;2023-01-05T05:18:36;39.95;;;18.70;;
62844;SDS011;48929;47.910;20.390;2023-01-05T05:21:05;36.08;;;16.73;;
62844;SDS011;48929;47.910;20.390;2023-01-05T05:23:33;37.28;;;16.83;;
62844;SDS011;48929;47.910;20.390;2023-01-05T05:26:05;35.72;;;16.88;;
62844;SDS011;48929;47.910;20.390;2023-01-05T05:28:36;32.83;;;16.20;;
62844;SDS011;48929;47.910;20.390;2023-01-05T05:31:04;38.88;;;18.42;;
62844;SDS011;48929;47.910;20.390;2023-01-05T05:33:33;38.78;;;17.02;;
62844;SDS011;48929;47.910;20.390;2023-01-05T05:36:05;42.22;;;19.08;;
62844;SDS011;48929;47.910;20.390;2023-01-05T05:38:34;41.80;;;18.15;;
62844;SDS011;48929;47.910;20.390;2023-01-05T05:41:02;43.50;;;19.88;;
62844;SDS011;48929;47.910;20.390;2023-01-05T05:43:31;39.58;;;18.65;;
62844;SDS011;48929;47.910;20.390;2023-01-05T05:46:02;42.90;;;18.88;;
62844;SDS011;48929;47.910;20.390;2023-01-05T05:48:30;41.53;;;18.77;;
62844;SDS011;48929;47.910;20.390;2023-01-05T05:50:59;37.15;;;18.60;;
62844;SDS011;48929;47.910;20.390;2023-01-05T05:53:28;38.10;;;18.40;;
62844;SDS011;48929;47.910;20.390;2023-01-05T05:55:56;44.10;;;20.52;;
62844;SDS011;48929;47.910;20.390;2023-01-05T05:58:28;46.80;;;21.35;;
62844;SDS011;48929;47.910;20.390;2023-01-05T06:00:56;42.13;;;18.65;;
62844;SDS011;48929;47.910;20.390;2023-01-05T06:03:27;45.80;;;19.60;;
62844;SDS011;48929;47.910;20.390;2023-01-05T06:05:56;41.70;;;19.08;;
62844;SDS011;48929;47.910;20.390;2023-01-05T06:08:25;43.22;;;18.45;;
62844;SDS011;48929;47.910;20.390;2023-01-05T06:10:55;46.97;;;19.60;;
62844;SDS011;48929;47.910;20.390;2023-01-05T06:13:25;39.22;;;18.02;;
62844;SDS011;48929;47.910;20.390;2023-01-05T06:15:53;42.60;;;19.00;;
62844;SDS011;48929;47.910;20.390;2023-01-05T06:18:23;40.72;;;18.15;;
62844;SDS011;48929;47.910;20.390;2023-01-05T06:20:56;44.03;;;17.88;;
62844;SDS011;48929;47.910;20.390;2023-01-05T06:23:27;39.78;;;18.05;;
62844;SDS011;48929;47.910;20.390;2023-01-05T06:25:56;34.92;;;16.85;;
62844;SDS011;48929;47.910;20.390;2023-01-05T06:28:27;39.67;;;17.42;;
62844;SDS011;48929;47.910;20.390;2023-01-05T06:30:56;40.35;;;17.38;;
62844;SDS011;48929;47.910;20.390;2023-01-05T06:33:24;41.00;;;16.95;;
62844;SDS011;48929;47.910;20.390;2023-01-05T06:35:55;42.80;;;19.52;;
62844;SDS011;48929;47.910;20.390;2023-01-05T06:38:26;38.08;;;18.08;;
62844;SDS011;48929;47.910;20.390;2023-01-05T06:40:57;38.25;;;16.95;;
62844;SDS011;48929;47.910;20.390;2023-01-05T06:43:27;42.08;;;18.55;;
62844;SDS011;48929;47.910;20.390;2023-01-05T06:45:55;42.03;;;19.38;;
62844;SDS011;48929;47.910;20.390;2023-01-05T06:48:25;41.60;;;19.10;;
62844;SDS011;48929;47.910;20.390;2023-01-05T06:50:54;43.63;;;21.48;;
62844;SDS011;48929;47.910;20.390;2023-01-05T06:53:23;39.45;;;18.77;;
62844;SDS011;48929;47.910;20.390;2023-01-05T06:55:54;40.53;;;17.83;;
62844;SDS011;48929;47.910;20.390;2023-01-05T06:58:23;37.15;;;17.83;;
62844;SDS011;48929;47.910;20.390;2023-01-05T07:00:54;38.45;;;17.48;;
62844;SDS011;48929;47.910;20.390;2023-01-05T07:03:23;35.60;;;17.60;;
62844;SDS011;48929;47.910;20.390;2023-01-05T07:05:52;39.42;;;18.52;;
62844;SDS011;48929;47.910;20.390;2023-01-05T07:08:22;45.03;;;20.25;;
62844;SDS011;48929;47.910;20.390;2023-01-05T07:10:51;42.97;;;20.10;;
62844;SDS011;48929;47.910;20.390;2023-01-05T07:13:27;39.80;;;18.95;;
62844;SDS011;48929;47.910;20.390;2023-01-05T07:15:58;41.08;;;19.42;;
62844;SDS011;48929;47.910;20.390;2023-01-05T07:18:27;44.83;;;21.73;;
62844;SDS011;48929;47.910;20.390;2023-01-05T07:20:58;42.13;;;20.50;;
62844;SDS011;48929;47.910;20.390;2023-01-05T07:23:27;40.42;;;19.92;;
62844;SDS011;48929;47.910;20.390;2023-01-05T07:25:58;44.80;;;22.33;;
62844;SDS011;48929;47.910;20.390;2023-01-05T07:28:31;43.40;;;20.98;;
62844;SDS011;48929;47.910;20.390;2023-01-05T07:31:00;43.78;;;20.77;;
62844;SDS011;48929;47.910;20.390;2023-01-05T07:33:30;46.70;;;20.33;;
62844;SDS011;48929;47.910;20.390;2023-01-05T07:36:06;47.55;;;22.25;;
62844;SDS011;48929;47.910;20.390;2023-01-05T07:38:36;43.83;;;20.80;;
62844;SDS011;48929;47.910;20.390;2023-01-05T07:41:07;39.80;;;20.85;;
62844;SDS011;48929;47.910;20.390;2023-01-05T07:43:38;50.22;;;22.77;;
62844;SDS011;48929;47.910;20.390;2023-01-05T07:46:07;43.17;;;21.05;;
62844;SDS011;48929;47.910;20.390;2023-01-05T07:48:37;48.60;;;23.38;;
62844;SDS011;48929;47.910;20.390;2023-01-05T07:51:11;45.42;;;21.92;;
62844;SDS011;48929;47.910;20.390;2023-01-05T07:53:39;39.15;;;19.90;;
62844;SDS011;48929;47.910;20.390;2023-01-05T07:56:11;45.03;;;22.38;;
62844;SDS011;48929;47.910;20.390;2023-01-05T07:58:41;40.53;;;20.30;;
62844;SDS011;48929;47.910;20.390;2023-01-05T08:01:13;42.75;;;20.77;;
62844;SDS011;48929;47.910;20.390;2023-01-05T08:03:43;46.15;;;22.75;;
62844;SDS011;48929;47.910;20.390;2023-01-05T08:06:14;37.55;;;19.95;;
62844;SDS011;48929;47.910;20.390;2023-01-05T08:08:43;42.30;;;20.70;;
62844;SDS011;48929;47.910;20.390;2023-01-05T08:11:14;39.10;;;20.90;;
62844;SDS011;48929;47.910;20.390;2023-01-05T08:13:44;39.00;;;20.77;;
62844;SDS011;48929;47.910;20.390;2023-01-05T08:16:31;38.45;;;19.42;;
62844;SDS011;48929;47.910;20.390;2023-01-05T08:19:03;36.67;;;18.83;;
62844;SDS011;48929;47.910;20.390;2023-01-05T08:21:37;42.13;;;19.70;;
62844;SDS011;48929;47.910;20.390;2023-01-05T08:24:06;85.20;;;30.20;;
62844;SDS011;48929;47.910;20.390;2023-01-05T08:26:35;61.38;;;24.67;;
62844;SDS011;48929;47.910;20.390;2023-01-05T08:29:08;53.95;;;24.20;;
62844;SDS011;48929;47.910;20.390;2023-01-05T08:31:38;39.28;;;19.52;;
62844;SDS011;48929;47.910;20.390;2023-01-05T08:34:07;39.55;;;19.55;;
62844;SDS011;48929;47.910;20.390;2023-01-05T08:36:36;40.83;;;20.60;;
62844;SDS011;48929;47.910;20.390;2023-01-05T08:39:08;39.13;;;19.20;;
62844;SDS011;48929;47.910;20.390;2023-01-05T08:41:37;35.00;;;18.02;;
62844;SDS011;48929;47.910;20.390;2023-01-05T08:44:10;31.42;;;17.20;;
62844;SDS011;48929;47.910;20.390;2023-01-05T08:46:39;35.50;;;18.30;;
62844;SDS011;48929;47.910;20.390;2023-01-05T08:49:08;35.15;;;16.80;;
62844;SDS011;48929;47.910;20.390;2023-01-05T08:51:38;32.42;;;16.77;;
62844;SDS011;48929;47.910;20.390;2023-01-05T08:54:07;33.13;;;16.98;;
62844;SDS011;48929;47.910;20.390;2023-01-05T08:56:40;30.52;;;16.45;;
62844;SDS011;48929;47.910;20.390;2023-01-05T08:59:12;30.65;;;18.23;;
62844;SDS011;48929;47.910;20.390;2023-01-05T09:01:41;31.88;;;18.13;;
62844;SDS011;48929;47.910;20.390;2023-01-05T09:04:11;33.75;;;19.00;;
62844;SDS011;48929;47.910;20.390;2023-01-05T09:06:42;33.83;;;19.40;;
62844;SDS011;48929;47.910;20.390;2023-01-05T09:09:11;33.50;;;18.13;;
62844;SDS011;48929;47.910;20.390;2023-01-05T09:11:40;31.98;;;18.23;;
62844;SDS011;48929;47.910;20.390;2023-01-05T09:14:10;30.08;;;16.92;;
62844;SDS011;48929;47.910;20.390;2023-01-05T09:16:42;33.25;;;17.52;;
62844;SDS011;48929;47.910;20.390;2023-01-05T09:19:31;34.58;;;17.30;;
62844;SDS011;48929;47.910;20.390;2023-01-05T09:22:01;34.45;;;19.45;;
62844;SDS011;48929;47.910;20.390;2023-01-05T09:24:29;34.55;;;18.55;;
62844;SDS011;48929;47.910;20.390;2023-01-05T09:26:58;33.60;;;18.60;;
62844;SDS011;48929;47.910;20.390;2023-01-05T09:29:29;37.42;;;19.52;;
62844;SDS011;48929;47.910;20.390;2023-01-05T09:31:59;35.45;;;19.13;;
62844;SDS011;48929;47.910;20.390;2023-01-05T09:34:30;37.92;;;19.48;;
62844;SDS011;48929;47.910;20.390;2023-01-05T09:36:59;33.30;;;18.80;;
62844;SDS011;48929;47.910;20.390;2023-01-05T09:39:28;32.85;;;18.17;;
62844;SDS011;48929;47.910;20.390;2023-01-05T09:41:57;32.53;;;18.52;;
62844;SDS011;48929;47.910;20.390;2023-01-05T09:44:29;35.55;;;20.48;;
62844;SDS011;48929;47.910;20.390;2023-01-05T09:47:01;34.28;;;18.58;;
62844;SDS011;48929;47.910;20.390;2023-01-05T09:49:30;32.13;;;17.00;;
62844;SDS011;48929;47.910;20.390;2023-01-05T09:52:02;32.75;;;17.45;;
62844;SDS011;48929;47.910;20.390;2023-01-05T09:54:35;33.53;;;17.73;;
62844;SDS011;48929;47.910;20.390;2023-01-05T09:57:05;35.90;;;20.85;;
62844;SDS011;48929;47.910;20.390;2023-01-05T09:59:37;36.63;;;19.65;;
62844;SDS011;48929;47.910;20.390;2023-01-05T10:02:12;31.08;;;17.42;;
62844;SDS011;48929;47.910;20.390;2023-01-05T10:04:42;38.00;;;20.17;;
62844;SDS011;48929;47.910;20.390;2023-01-05T10:07:14;39.25;;;20.02;;
62844;SDS011;48929;47.910;20.390;2023-01-05T10:09:47;37.03;;;19.75;;
62844;SDS011;48929;47.910;20.390;2023-01-05T10:12:18;32.80;;;18.48;;
62844;SDS011;48929;47.910;20.390;2023-01-05T10:15:06;33.55;;;18.27;;
62844;SDS011;48929;47.910;20.390;2023-01-05T10:17:37;35.45;;;19.05;;
62844;SDS011;48929;47.910;20.390;2023-01-05T10:20:17;39.13;;;20.35;;
62844;SDS011;48929;47.910;20.390;2023-01-05T10:22:49;33.95;;;18.17;;
62844;SDS011;48929;47.910;20.390;2023-01-05T10:25:24;32.95;;;17.00;;
62844;SDS011;48929;47.910;20.390;2023-01-05T10:27:58;32.83;;;15.90;;
62844;SDS011;48929;47.910;20.390;2023-01-05T10:30:37;29.27;;;15.63;;
62844;SDS011;48929;47.910;20.390;2023-01-05T10:33:13;30.40;;;14.65;;
62844;SDS011;48929;47.910;20.390;2023-01-05T10:36:05;20.83;;;11.73;;
62844;SDS011;48929;47.910;20.390;2023-01-05T10:38:43;14.00;;;6.82;;
62844;SDS011;48929;47.910;20.390;2023-01-05T10:41:17;16.00;;;9.52;;
62844;SDS011;48929;47.910;20.390;2023-01-05T10:46:34;15.20;;;9.73;;
62844;SDS011;48929;47.910;20.390;2023-01-05T10:49:18;14.00;;;8.05;;
62844;SDS011;48929;47.910;20.390;2023-01-05T10:51:47;12.43;;;7.18;;
62844;SDS011;48929;47.910;20.390;2023-01-05T10:54:28;12.73;;;6.88;;
62844;SDS011;48929;47.910;20.390;2023-01-05T10:57:02;12.70;;;7.47;;
62844;SDS011;48929;47.910;20.390;2023-01-05T11:00:00;8.65;;;5.55;;
62844;SDS011;48929;47.910;20.390;2023-01-05T11:02:30;10.52;;;6.18;;
62844;SDS011;48929;47.910;20.390;2023-01-05T11:05:04;8.48;;;5.88;;
62844;SDS011;48929;47.910;20.390;2023-01-05T11:07:45;9.80;;;6.03;;
62844;SDS011;48929;47.910;20.390;2023-01-05T11:10:18;10.18;;;6.70;;
62844;SDS011;48929;47.910;20.390;2023-01-05T11:12:50;10.85;;;7.47;;
62844;SDS011;48929;47.910;20.390;2023-01-05T11:15:19;12.65;;;7.97;;
62844;SDS011;48929;47.910;20.390;2023-01-05T11:17:50;13.98;;;8.50;;
62844;SDS011;48929;47.910;20.390;2023-01-05T11:20:23;10.88;;;7.50;;
62844;SDS011;48929;47.910;20.390;2023-01-05T11:22:54;13.73;;;8.02;;
62844;SDS011;48929;47.910;20.390;2023-01-05T11:25:27;14.27;;;7.80;;
62844;SDS011;48929;47.910;20.390;2023-01-05T11:28:08;14.00;;;9.18;;
62844;SDS011;48929;47.910;20.390;2023-01-05T11:30:40;17.48;;;11.80;;
62844;SDS011;48929;47.910;20.390;2023-01-05T11:33:12;16.83;;;11.80;;
62844;SDS011;48929;47.910;20.390;2023-01-05T11:35:52;16.73;;;11.85;;
62844;SDS011;48929;47.910;20.390;2023-01-05T11:38:22;17.42;;;12.80;;
62844;SDS011;48929;47.910;20.390;2023-01-05T11:40:51;15.55;;;11.00;;
62844;SDS011;48929;47.910;20.390;2023-01-05T11:43:22;14.98;;;8.35;;
62844;SDS011;48929;47.910;20.390;2023-01-05T11:45:52;12.60;;;8.57;;
62844;SDS011;48929;47.910;20.390;2023-01-05T11:48:22;12.82;;;8.55;;
62844;SDS011;48929;47.910;20.390;2023-01-05T11:50:56;11.55;;;6.60;;
62844;SDS011;48929;47.910;20.390;2023-01-05T11:53:34;13.75;;;9.10;;
62844;SDS011;48929;47.910;20.390;2023-01-05T11:56:04;13.18;;;9.05;;
62844;SDS011;48929;47.910;20.390;2023-01-05T11:58:41;11.18;;;7.32;;
62844;SDS011;48929;47.910;20.390;2023-01-05T12:01:24;8.60;;;5.07;;
62844;SDS011;48929;47.910;20.390;2023-01-05T12:04:02;6.18;;;4.28;;
62844;SDS011;48929;47.910;20.390;2023-01-05T12:06:44;7.07;;;4.10;;
62844;SDS011;48929;47.910;20.390;2023-01-05T12:09:20;5.30;;;3.63;;
62844;SDS011;48929;47.910;20.390;2023-01-05T12:12:15;6.13;;;3.40;;
62844;SDS011;48929;47.910;20.390;2023-01-05T12:14:59;5.13;;;3.10;;
62844;SDS011;48929;47.910;20.390;2023-01-05T12:17:32;4.82;;;2.80;;
62844;SDS011;48929;47.910;20.390;2023-01-05T12:20:10;3.83;;;2.47;;
62844;SDS011;48929;47.910;20.390;2023-01-05T12:25:34;4.57;;;3.00;;
62844;SDS011;48929;47.910;20.390;2023-01-05T12:28:22;5.85;;;3.80;;
62844;SDS011;48929;47.910;20.390;2023-01-05T12:31:12;4.50;;;2.28;;
62844;SDS011;48929;47.910;20.390;2023-01-05T12:34:17;5.00;;;2.83;;
62844;SDS011;48929;47.910;20.390;2023-01-05T12:36:56;4.35;;;2.42;;
62844;SDS011;48929;47.910;20.390;2023-01-05T12:39:33;5.75;;;2.80;;
62844;SDS011;48929;47.910;20.390;2023-01-05T12:42:14;5.30;;;3.13;;
62844;SDS011;48929;47.910;20.390;2023-01-05T12:45:11;4.13;;;2.58;;
62844;SDS011;48929;47.910;20.390;2023-01-05T12:47:54;3.65;;;2.30;;
62844;SDS011;48929;47.910;20.390;2023-01-05T12:50:26;6.43;;;3.55;;
62844;SDS011;48929;47.910;20.390;2023-01-05T12:52:57;5.15;;;2.70;;
62844;SDS011;48929;47.910;20.390;2023-01-05T12:55:30;6.35;;;2.80;;
62844;SDS011;48929;47.910;20.390;2023-01-05T12:58:08;3.55;;;2.33;;
62844;SDS011;48929;47.910;20.390;2023-01-05T13:00:38;7.07;;;2.80;;
62844;SDS011;48929;47.910;20.390;2023-01-05T13:03:14;7.32;;;2.90;;
62844;SDS011;48929;47.910;20.390;2023-01-05T13:05:45;5.30;;;3.08;;
62844;SDS011;48929;47.910;20.390;2023-01-05T13:08:16;4.70;;;3.00;;
62844;SDS011;48929;47.910;20.390;2023-01-05T13:10:47;5.78;;;2.90;;
62844;SDS011;48929;47.910;20.390;2023-01-05T13:13:18;5.50;;;2.70;;
62844;SDS011;48929;47.910;20.390;2023-01-05T13:15:50;5.25;;;2.80;;
62844;SDS011;48929;47.910;20.390;2023-01-05T13:18:22;6.35;;;3.30;;
62844;SDS011;48929;47.910;20.390;2023-01-05T13:20:56;4.53;;;2.10;;
62844;SDS011;48929;47.910;20.390;2023-01-05T13:23:26;5.50;;;2.90;;
62844;SDS011;48929;47.910;20.390;2023-01-05T13:25:56;4.22;;;2.60;;
62844;SDS011;48929;47.910;20.390;2023-01-05T13:28:28;5.13;;;3.10;;
62844;SDS011;48929;47.910;20.390;2023-01-05T13:31:05;4.53;;;2.30;;
62844;SDS011;48929;47.910;20.390;2023-01-05T13:33:43;2.88;;;2.22;;
62844;SDS011;48929;47.910;20.390;2023-01-05T13:36:24;6.47;;;2.42;;
62844;SDS011;48929;47.910;20.390;2023-01-05T13:39:09;6.10;;;2.40;;
62844;SDS011;48929;47.910;20.390;2023-01-05T13:41:47;6.22;;;2.50;;
62844;SDS011;48929;47.910;20.390;2023-01-05T13:44:38;3.47;;;2.17;;
62844;SDS011;48929;47.910;20.390;2023-01-05T13:47:13;4.40;;;2.60;;
62844;SDS011;48929;47.910;20.390;2023-01-05T13:52:45;4.88;;;2.50;;
62844;SDS011;48929;47.910;20.390;2023-01-05T13:55:17;3.38;;;2.20;;
62844;SDS011;48929;47.910;20.390;2023-01-05T13:57:52;5.25;;;2.10;;
62844;SDS011;48929;47.910;20.390;2023-01-05T14:00:24;4.97;;;2.20;;
62844;SDS011;48929;47.910;20.390;2023-01-05T14:02:57;5.53;;;2.97;;
62844;SDS011;48929;47.910;20.390;2023-01-05T14:05:28;5.18;;;2.80;;
62844;SDS011;48929;47.910;20.390;2023-01-05T14:07:59;3.38;;;1.90;;
62844;SDS011;48929;47.910;20.390;2023-01-05T14:10:30;2.75;;;1.80;;
62844;SDS011;48929;47.910;20.390;2023-01-05T14:12:59;5.03;;;2.75;;
62844;SDS011;48929;47.910;20.390;2023-01-05T14:23:57;3.15;;;1.90;;
62844;SDS011;48929;47.910;20.390;2023-01-05T14:32:06;4.88;;;2.65;;
62844;SDS011;48929;47.910;20.390;2023-01-05T14:34:36;6.38;;;2.80;;
62844;SDS011;48929;47.910;20.390;2023-01-05T14:37:05;7.00;;;3.03;;
62844;SDS011;48929;47.910;20.390;2023-01-05T14:39:40;7.28;;;3.25;;
62844;SDS011;48929;47.910;20.390;2023-01-05T14:42:16;3.42;;;2.25;;
62844;SDS011;48929;47.910;20.390;2023-01-05T14:44:48;5.85;;;2.80;;
62844;SDS011;48929;47.910;20.390;2023-01-05T14:47:31;4.40;;;2.30;;
62844;SDS011;48929;47.910;20.390;2023-01-05T14:50:01;4.15;;;2.53;;
62844;SDS011;48929;47.910;20.390;2023-01-05T14:55:21;6.20;;;3.40;;
62844;SDS011;48929;47.910;20.390;2023-01-05T14:58:05;6.95;;;3.08;;
62844;SDS011;48929;47.910;20.390;2023-01-05T15:00:50;10.55;;;3.70;;
62844;SDS011;48929;47.910;20.390;2023-01-05T15:03:23;7.70;;;3.53;;
62844;SDS011;48929;47.910;20.390;2023-01-05T15:05:59;7.00;;;3.40;;
62844;SDS011;48929;47.910;20.390;2023-01-05T15:08:35;7.53;;;3.90;;
62844;SDS011;48929;47.910;20.390;2023-01-05T15:11:17;9.15;;;3.80;;
62844;SDS011;48929;47.910;20.390;2023-01-05T15:14:05;8.90;;;5.45;;
62844;SDS011;48929;47.910;20.390;2023-01-05T15:19:51;10.20;;;5.35;;
62844;SDS011;48929;47.910;20.390;2023-01-05T15:25:07;7.68;;;4.30;;
62844;SDS011;48929;47.910;20.390;2023-01-05T15:27:47;8.77;;;4.47;;
62844;SDS011;48929;47.910;20.390;2023-01-05T15:30:30;8.43;;;4.18;;
62844;SDS011;48929;47.910;20.390;2023-01-05T15:33:06;11.57;;;5.57;;